Glasgow, Missouri
Current Conditions -  °F | °C
As of 11:55 PM on Friday 19 Dec 2014 (Local Time) from KVER Reporting Station
Haze Haze  
Wind Chill: 36°   Ceiling: 800
Heat Index: 36°   Visibility: 5mi
Dew Point: 35°   Wind: 0mph
Humidity: 97%   Direction: NA
Pressure: 30.23"   Gusts: NA
Location:  39.23°N, 92.85°W
Report Text: KVER 200555Z AUTO 00000KT 5SM BR OVC008 02/02 A3023 RMK AO2 T00210016 10204 21110 402041110
Loading
Personal Weather Stations






























Interactive Weather Map New forecast layout! Learn more

10-Day Weather Forecast

Advertisements
Track Severe Weather on mobile